Time;durP1;ratioP1;P1;durP2;ratioP2;P2;SDS_P1;SDS_P2;PMS_P1;PMS_P2;Temp;Humidity;BMP_temperature;BMP_pressure;BME280_temperature;BME280_humidity;BME280_pressure;Samples;Min_cycle;Max_cycle;Signal;HPM_P1;HPM_P2
2023/12/30 00:02:16;;;;;;;11.20;2.55;;;;;;;7.69;100.00;100670.19;5029270;28;20036;-72
2023/12/30 00:04:41;;;;;;;11.55;1.73;;;;;;;7.65;100.00;100685.16;5034668;28;20029;-72
2023/12/30 00:07:07;;;;;;;14.75;1.75;;;;;;;7.63;100.00;100691.38;5033907;28;20432;-72
2023/12/30 00:09:32;;;;;;;15.10;1.88;;;;;;;7.62;100.00;100694.94;5033183;28;20044;-71
2023/12/30 00:11:57;;;;;;;11.80;1.63;;;;;;;7.59;100.00;100686.53;5030362;28;20099;-71
2023/12/30 00:14:23;;;;;;;16.50;1.73;;;;;;;7.51;100.00;100685.56;5012723;28;20100;-72
2023/12/30 00:16:48;;;;;;;13.90;2.33;;;;;;;7.46;100.00;100687.75;5034129;28;20380;-72
2023/12/30 00:19:14;;;;;;;15.02;2.00;;;;;;;7.44;100.00;100689.66;5032872;28;20043;-71
2023/12/30 00:21:39;;;;;;;14.05;1.65;;;;;;;7.55;100.00;100698.06;5032385;28;20029;-72
2023/12/30 00:24:05;;;;;;;13.85;1.90;;;;;;;7.38;100.00;100694.44;5021463;28;20033;-71
2023/12/30 00:26:30;;;;;;;11.52;1.98;;;;;;;7.46;100.00;100698.06;5038444;28;20037;-71
2023/12/30 00:29:05;;;;;;;18.95;1.80;;;;;;;7.48;100.00;100704.75;5033338;28;20087;-71
2023/12/30 00:31:32;;;;;;;17.05;1.98;;;;;;;7.48;100.00;100709.91;5034289;28;20025;-71
2023/12/30 00:34:00;;;;;;;15.93;1.92;;;;;;;7.52;100.00;100713.03;5031645;28;20496;-72
2023/12/30 00:36:26;;;;;;;13.65;1.73;;;;;;;7.48;100.00;100712.47;5042121;28;20373;-72
2023/12/30 00:38:55;;;;;;;14.00;2.67;;;;;;;7.55;100.00;100717.88;5022117;28;20033;-71
2023/12/30 00:41:29;;;;;;;16.13;2.33;;;;;;;7.44;100.00;100716.28;5043102;28;20029;-72
2023/12/30 00:43:55;;;;;;;12.63;1.70;;;;;;;7.56;100.00;100714.38;5044608;28;20508;-72
2023/12/30 00:46:21;;;;;;;10.05;1.70;;;;;;;7.50;100.00;100718.31;5044828;28;20040;-72
2023/12/30 00:48:47;;;;;;;14.35;1.80;;;;;;;7.43;100.00;100706.09;5043454;28;20033;-72
2023/12/30 00:51:13;;;;;;;13.50;2.40;;;;;;;7.49;100.00;100711.50;5043941;28;20067;-72
2023/12/30 00:53:39;;;;;;;19.60;2.28;;;;;;;7.49;100.00;100708.94;5036599;28;20033;-72
2023/12/30 00:56:05;;;;;;;10.77;1.60;;;;;;;7.40;100.00;100707.16;5019143;28;20094;-72
2023/12/30 00:58:30;;;;;;;8.40;1.30;;;;;;;7.51;100.00;100725.09;5038723;28;20034;-72
2023/12/30 01:00:56;;;;;;;8.23;1.23;;;;;;;7.45;100.00;100717.09;5033328;28;20389;-71
2023/12/30 01:03:21;;;;;;;7.18;1.15;;;;;;;7.45;100.00;100728.22;5049443;28;20079;-71
2023/12/30 01:05:47;;;;;;;12.50;1.40;;;;;;;7.44;100.00;100728.34;5020408;28;20025;-72
2023/12/30 01:08:13;;;;;;;10.15;1.40;;;;;;;7.40;100.00;100738.13;5035077;28;20063;-72
2023/12/30 01:10:38;;;;;;;13.38;2.85;;;;;;;7.30;100.00;100739.91;5036305;28;20083;-72
2023/12/30 01:13:08;;;;;;;12.23;1.30;;;;;;;7.37;100.00;100753.91;5035978;28;20056;-71
2023/12/30 01:15:34;;;;;;;15.73;2.10;;;;;;;7.31;100.00;100751.84;5033222;28;20551;-72
2023/12/30 01:18:00;;;;;;;20.00;2.00;;;;;;;7.34;100.00;100759.31;5033754;28;20024;-72
2023/12/30 01:20:26;;;;;;;27.42;2.33;;;;;;;7.28;100.00;100754.72;5038115;28;20040;-72
2023/12/30 01:22:51;;;;;;;26.90;3.85;;;;;;;7.27;100.00;100753.91;5030048;28;20414;-72
2023/12/30 01:25:17;;;;;;;22.02;3.13;;;;;;;7.24;100.00;100755.94;5034211;28;20040;-72
2023/12/30 01:27:42;;;;;;;27.25;3.28;;;;;;;7.14;100.00;100756.75;5012116;28;20065;-72
2023/12/30 01:30:08;;;;;;;18.35;2.00;;;;;;;7.15;100.00;100762.69;5034166;28;20045;-72
2023/12/30 01:32:33;;;;;;;22.38;2.60;;;;;;;7.24;100.00;100774.00;5035353;28;20654;-72
2023/12/30 01:34:59;;;;;;;30.08;3.17;;;;;;;7.29;100.00;100779.53;5035891;28;20550;-72
2023/12/30 01:37:24;;;;;;;24.60;3.78;;;;;;;7.25;100.00;100786.72;5043342;28;20045;-72
2023/12/30 01:39:50;;;;;;;25.42;2.40;;;;;;;7.28;100.00;100783.09;5040939;28;20029;-72
2023/12/30 01:42:15;;;;;;;15.35;2.30;;;;;;;7.21;100.00;100793.94;5035534;28;20550;-72
2023/12/30 01:44:41;;;;;;;13.13;2.05;;;;;;;7.25;100.00;100788.50;5038495;28;20034;-71
2023/12/30 01:47:06;;;;;;;17.75;1.88;;;;;;;7.18;100.00;100795.97;5042148;28;20033;-72
2023/12/30 01:49:32;;;;;;;22.35;2.00;;;;;;;7.19;100.00;100803.56;5037321;28;20037;-73
2023/12/30 01:51:58;;;;;;;19.00;2.20;;;;;;;7.22;100.00;100803.28;5036945;28;20051;-72
2023/12/30 01:54:25;;;;;;;25.70;2.25;;;;;;;7.37;100.00;100808.88;5033808;28;20040;-72
2023/12/30 01:56:51;;;;;;;25.48;2.40;;;;;;;7.32;100.00;100810.22;5042156;28;20025;-72
2023/12/30 01:59:18;;;;;;;25.77;2.35;;;;;;;7.27;100.00;100818.38;5020128;28;20099;-72
2023/12/30 02:01:47;;;;;;;21.42;2.67;;;;;;;7.22;100.00;100815.38;5036256;28;20123;-72
2023/12/30 02:04:12;;;;;;;23.48;2.00;;;;;;;7.30;100.00;100809.56;5036938;28;20029;-71
2023/12/30 02:06:41;;;;;;;15.00;2.15;;;;;;;7.27;100.00;100818.38;5045411;28;20036;-72
2023/12/30 02:09:08;;;;;;;15.73;2.22;;;;;;;7.24;100.00;100813.47;5039779;28;20647;-72
2023/12/30 02:11:35;;;;;;;16.20;2.75;;;;;;;7.17;100.00;100802.88;5033858;28;20029;-72
2023/12/30 02:14:01;;;;;;;21.13;2.60;;;;;;;7.12;100.00;100805.06;5025784;28;20033;-72
2023/12/30 02:16:26;;;;;;;15.73;2.22;;;;;;;7.14;100.00;100805.75;5041350;28;20486;-72
2023/12/30 02:18:52;;;;;;;18.65;2.42;;;;;;;7.07;100.00;100806.41;5034331;28;20029;-72
2023/12/30 02:21:17;;;;;;;14.60;2.40;;;;;;;7.06;100.00;100810.72;5037692;28;20466;-72
2023/12/30 02:23:43;;;;;;;14.70;2.08;;;;;;;7.15;100.00;100812.50;5038707;28;20033;-72
2023/12/30 02:26:08;;;;;;;18.83;3.10;;;;;;;7.09;100.00;100819.97;5034026;28;20029;-72
2023/12/30 02:28:34;;;;;;;19.67;2.63;;;;;;;7.07;100.00;100817.53;5036466;28;20037;-72
2023/12/30 02:31:00;;;;;;;19.08;2.20;;;;;;;7.12;100.00;100817.94;5035892;28;20116;-71
2023/12/30 02:33:25;;;;;;;17.13;2.53;;;;;;;7.11;100.00;100816.31;5037399;28;20082;-71
2023/12/30 02:35:51;;;;;;;19.35;1.98;;;;;;;6.92;100.00;100826.59;5034701;28;20413;-72
2023/12/30 02:38:17;;;;;;;22.17;2.28;;;;;;;7.01;100.00;100826.59;5036696;28;20048;-72
2023/12/30 02:40:43;;;;;;;21.83;2.05;;;;;;;7.04;100.00;100824.72;5041361;28;20025;-72
2023/12/30 02:43:09;;;;;;;13.80;1.85;;;;;;;6.96;100.00;100833.09;5021400;28;20040;-71
2023/12/30 02:45:35;;;;;;;24.73;2.92;;;;;;;7.12;100.00;100827.44;5036952;28;21573;-72
2023/12/30 02:48:00;;;;;;;17.10;3.03;;;;;;;7.04;100.00;100835.81;5031528;28;20033;-72
2023/12/30 02:50:26;;;;;;;23.40;3.78;;;;;;;7.06;100.00;100821.03;5018190;28;20029;-72
2023/12/30 02:52:51;;;;;;;14.32;2.20;;;;;;;7.04;100.00;100833.25;5034267;28;20048;-72
2023/12/30 02:55:16;;;;;;;21.30;2.47;;;;;;;7.07;100.00;100829.63;5018312;28;20063;-72
2023/12/30 02:57:42;;;;;;;16.38;2.88;;;;;;;7.01;100.00;100824.03;5031179;28;20392;-71
2023/12/30 03:00:08;;;;;;;20.45;2.17;;;;;;;6.95;100.00;100824.56;5033853;28;20036;-71
2023/12/30 03:02:33;;;;;;;20.17;2.45;;;;;;;6.99;100.00;100830.28;5036813;28;20044;-71
2023/12/30 03:04:59;;;;;;;26.95;2.85;;;;;;;7.01;100.00;100825.81;5021593;28;20095;-72
2023/12/30 03:07:24;;;;;;;18.77;2.03;;;;;;;6.95;100.00;100831.47;5021676;28;20036;-72
2023/12/30 03:09:50;;;;;;;12.40;1.98;;;;;;;6.86;100.00;100829.69;5035851;28;20640;-72
2023/12/30 03:12:15;;;;;;;18.38;2.00;;;;;;;6.80;100.00;100824.09;5027962;28;20416;-71
2023/12/30 03:14:41;;;;;;;10.52;2.15;;;;;;;6.91;100.00;100830.94;5052398;28;20041;-71
2023/12/30 03:17:06;;;;;;;11.30;2.55;;;;;;;6.94;100.00;100835.00;5038810;28;20028;-71
2023/12/30 03:19:32;;;;;;;25.95;2.53;;;;;;;6.92;100.00;100836.91;5021078;28;20036;-71
2023/12/30 03:21:57;;;;;;;16.33;2.03;;;;;;;6.94;100.00;100830.66;5040891;28;20518;-72
2023/12/30 03:24:23;;;;;;;17.88;2.78;;;;;;;6.88;100.00;100841.50;5035070;28;20079;-72
2023/12/30 03:26:48;;;;;;;14.10;2.08;;;;;;;6.88;100.00;100838.09;5040647;28;20091;-71
2023/12/30 03:29:14;;;;;;;21.77;3.65;;;;;;;6.91;100.00;100840.41;5036344;28;20597;-71
2023/12/30 03:31:39;;;;;;;16.55;2.47;;;;;;;6.91;100.00;100841.25;5040149;28;20083;-72
2023/12/30 03:34:05;;;;;;;20.85;2.10;;;;;;;6.96;100.00;100840.84;5035523;28;20753;-72
2023/12/30 03:36:30;;;;;;;18.15;2.47;;;;;;;6.91;100.00;100840.41;5041965;28;20035;-72
2023/12/30 03:38:56;;;;;;;19.85;1.73;;;;;;;6.97;100.00;100842.47;5037614;28;20029;-71
2023/12/30 03:41:22;;;;;;;22.85;2.95;;;;;;;7.01;100.00;100844.66;5040350;28;20416;-72
2023/12/30 03:43:48;;;;;;;20.90;2.28;;;;;;;6.90;100.00;100849.91;5025454;28;20032;-72
2023/12/30 03:46:14;;;;;;;25.20;2.28;;;;;;;6.86;100.00;100847.75;5020656;28;20123;-72
2023/12/30 03:48:39;;;;;;;12.02;2.83;;;;;;;6.82;100.00;100840.25;5037184;28;20399;-72
2023/12/30 03:51:05;;;;;;;16.92;1.90;;;;;;;6.82;100.00;100839.44;5039837;28;20063;-71
2023/12/30 03:53:32;;;;;;;19.05;2.20;;;;;;;6.89;100.00;100843.09;5042023;28;20040;-72
2023/12/30 03:55:58;;;;;;;12.07;1.75;;;;;;;6.90;100.00;100837.03;5035140;28;20025;-70
2023/12/30 03:58:24;;;;;;;24.88;4.13;;;;;;;6.82;100.00;100836.88;5020847;28;20512;-72
2023/12/30 04:00:49;;;;;;;11.50;2.30;;;;;;;6.79;100.00;100837.13;5039346;28;20037;-72
2023/12/30 04:03:15;;;;;;;16.80;1.80;;;;;;;6.77;100.00;100834.66;5037652;28;20084;-72
2023/12/30 04:05:41;;;;;;;19.92;1.92;;;;;;;6.79;100.00;100850.81;5039797;28;20021;-72
2023/12/30 04:08:06;;;;;;;15.48;2.72;;;;;;;6.90;100.00;100841.38;5034228;28;20029;-71
2023/12/30 04:10:32;;;;;;;16.05;1.83;;;;;;;6.77;100.00;100842.41;5039095;28;20033;-72
2023/12/30 04:12:58;;;;;;;19.45;1.95;;;;;;;6.72;100.00;100831.66;5023481;28;20486;-72
2023/12/30 04:15:23;;;;;;;14.35;1.73;;;;;;;6.74;100.00;100847.00;5037567;28;20044;-72
2023/12/30 04:17:49;;;;;;;20.08;2.10;;;;;;;6.83;100.00;100847.03;5035418;28;20036;-71
2023/12/30 04:20:14;;;;;;;28.50;3.55;;;;;;;6.76;100.00;100845.09;5028944;28;20048;-71
2023/12/30 04:22:40;;;;;;;20.52;3.58;;;;;;;6.83;100.00;100849.59;5036580;28;20022;-72
2023/12/30 04:25:06;;;;;;;12.30;1.85;;;;;;;6.70;100.00;100851.59;5034047;28;20029;-72
2023/12/30 04:27:31;;;;;;;17.77;1.65;;;;;;;6.75;100.00;100848.63;5019787;28;20480;-71
2023/12/30 04:29:57;;;;;;;15.77;2.13;;;;;;;6.79;100.00;100852.59;5041295;28;20106;-71
2023/12/30 04:32:24;;;;;;;21.70;2.58;;;;;;;6.69;100.00;100846.59;5038953;28;20146;-72
2023/12/30 04:34:50;;;;;;;19.05;2.45;;;;;;;6.74;100.00;100865.88;5035392;28;20044;-72
2023/12/30 04:37:16;;;;;;;17.77;2.65;;;;;;;6.70;100.00;100856.75;5037162;28;20035;-72
2023/12/30 04:39:41;;;;;;;19.63;2.47;;;;;;;6.82;100.00;100854.91;5035602;28;20116;-72
2023/12/30 04:42:07;;;;;;;15.15;2.55;;;;;;;6.79;100.00;100855.97;5037052;28;20025;-71
2023/12/30 04:44:33;;;;;;;21.98;2.25;;;;;;;6.75;100.00;100864.09;5016563;28;20033;-72
2023/12/30 04:46:58;;;;;;;21.35;3.25;;;;;;;6.63;100.00;100864.19;5038402;28;20447;-72
2023/12/30 04:49:24;;;;;;;12.73;3.15;;;;;;;6.57;100.00;100871.59;5037364;28;20036;-72
2023/12/30 04:51:49;;;;;;;20.02;2.20;;;;;;;6.51;100.00;100875.50;5029094;28;20426;-72
2023/12/30 04:54:15;;;;;;;19.75;2.92;;;;;;;6.60;100.00;100879.91;5037539;28;21260;-71
2023/12/30 04:56:41;;;;;;;29.30;2.63;;;;;;;6.50;100.00;100876.47;5038172;28;20036;-72
2023/12/30 04:59:09;;;;;;;13.15;2.10;;;;;;;6.46;100.00;100880.25;5033698;28;20029;-71
2023/12/30 05:01:34;;;;;;;19.95;2.10;;;;;;;6.45;100.00;100868.28;5038724;28;20029;-72
2023/12/30 05:04:01;;;;;;;18.80;2.65;;;;;;;6.46;100.00;100877.66;5034559;28;20078;-72
2023/12/30 05:06:27;;;;;;;17.77;3.40;;;;;;;6.46;100.00;100884.56;5040166;28;20031;-72
2023/12/30 05:08:53;;;;;;;20.00;2.28;;;;;;;6.41;100.00;100877.22;5038300;28;20037;-72
2023/12/30 05:11:19;;;;;;;17.95;2.30;;;;;;;6.52;100.00;100882.31;5040634;28;20076;-71
2023/12/30 05:13:45;;;;;;;25.90;2.45;;;;;;;6.44;100.00;100889.84;5042879;28;20663;-72
2023/12/30 05:16:12;;;;;;;18.65;3.08;;;;;;;6.53;100.00;100889.06;5040447;28;20041;-71
2023/12/30 05:18:37;;;;;;;9.85;2.17;;;;;;;6.48;100.00;100891.22;5045761;28;20048;-72
2023/12/30 05:21:03;;;;;;;16.50;2.15;;;;;;;6.51;100.00;100892.72;5042742;28;20059;-72
2023/12/30 05:23:31;;;;;;;22.02;2.83;;;;;;;6.48;100.00;100892.97;5036558;28;20063;-72
2023/12/30 05:25:57;;;;;;;15.77;2.60;;;;;;;6.52;100.00;100897.75;5039186;28;20079;-72
2023/12/30 05:28:22;;;;;;;15.38;2.90;;;;;;;6.67;100.00;100900.00;5036360;28;20519;-72
2023/12/30 05:30:47;;;;;;;13.95;2.17;;;;;;;6.54;100.00;100897.63;5036904;28;20404;-72
2023/12/30 05:33:13;;;;;;;18.92;2.25;;;;;;;6.69;100.00;100906.66;5041422;28;20044;-72
2023/12/30 05:35:39;;;;;;;16.10;2.35;;;;;;;6.74;100.00;100914.00;5039966;28;20045;-72
2023/12/30 05:38:05;;;;;;;19.98;3.70;;;;;;;6.66;100.00;100914.66;5036583;28;20500;-71
2023/12/30 05:40:31;;;;;;;23.15;2.63;;;;;;;6.71;100.00;100911.69;5036576;28;20048;-72
2023/12/30 05:42:56;;;;;;;23.15;2.22;;;;;;;6.75;100.00;100910.50;5041843;28;20028;-71
2023/12/30 05:45:22;;;;;;;18.90;2.10;;;;;;;6.69;100.00;100914.41;5041455;28;20029;-72
2023/12/30 05:47:47;;;;;;;17.50;2.15;;;;;;;6.60;100.00;100910.00;5038319;28;20400;-72
2023/12/30 05:50:13;;;;;;;13.55;2.28;;;;;;;6.70;100.00;100916.00;5039731;28;20080;-72
2023/12/30 05:52:39;;;;;;;18.80;3.15;;;;;;;6.57;100.00;100915.41;5042071;28;20041;-71
2023/12/30 05:55:05;;;;;;;32.95;7.93;;;;;;;6.63;100.00;100918.31;5044898;28;20029;-72
2023/12/30 05:57:30;;;;;;;21.73;3.58;;;;;;;6.55;100.00;100915.53;5036391;28;20087;-72
2023/12/30 05:59:56;;;;;;;18.90;2.78;;;;;;;6.46;100.00;100926.63;5037160;28;20053;-72
2023/12/30 06:02:22;;;;;;;20.48;3.65;;;;;;;6.51;100.00;100915.91;5039009;28;20056;-72
2023/12/30 06:04:47;;;;;;;14.18;2.15;;;;;;;6.50;100.00;100916.84;5038255;28;20087;-72
2023/12/30 06:07:13;;;;;;;23.17;7.03;;;;;;;6.52;100.00;100926.09;5039581;28;20393;-72
2023/12/30 06:09:38;;;;;;;20.85;5.05;;;;;;;6.53;100.00;100930.28;5038696;28;20052;-72
2023/12/30 06:12:04;;;;;;;29.92;8.68;;;;;;;6.42;100.00;100928.63;5036472;28;20029;-72
2023/12/30 06:14:29;;;;;;;22.08;5.85;;;;;;;6.39;100.00;100935.78;5038541;28;20045;-72
2023/12/30 06:16:55;;;;;;;21.35;6.10;;;;;;;6.55;100.00;100932.75;5028082;28;20040;-71
2023/12/30 06:19:20;;;;;;;25.55;4.40;;;;;;;6.53;100.00;100947.53;5037875;28;20029;-72
2023/12/30 06:21:46;;;;;;;21.35;3.65;;;;;;;6.48;100.00;100939.34;5041648;28;20444;-71
2023/12/30 06:24:11;;;;;;;19.02;2.63;;;;;;;6.54;100.00;100954.31;5034312;28;20517;-72
2023/12/30 06:26:38;;;;;;;25.35;2.75;;;;;;;6.45;100.00;100952.50;5038245;28;20087;-71
2023/12/30 06:29:05;;;;;;;21.17;2.97;;;;;;;6.37;100.00;100951.34;5037529;28;20071;-72
2023/12/30 06:31:31;;;;;;;17.48;2.33;;;;;;;6.42;100.00;100956.97;5038592;28;20549;-71
2023/12/30 06:33:56;;;;;;;16.85;2.55;;;;;;;6.39;100.00;100964.13;5040304;28;20071;-71
2023/12/30 06:36:23;;;;;;;27.10;3.30;;;;;;;6.48;100.00;100965.94;5022200;28;20110;-72
2023/12/30 06:38:49;;;;;;;21.45;3.70;;;;;;;6.43;100.00;100968.88;5040538;28;20415;-72
2023/12/30 06:41:18;;;;;;;25.65;3.58;;;;;;;6.37;100.00;100971.97;5038354;28;20026;-71
2023/12/30 06:43:44;;;;;;;16.13;2.95;;;;;;;6.33;100.00;100977.47;5038553;28;20033;-72
2023/12/30 06:46:10;;;;;;;16.98;2.15;;;;;;;6.33;100.00;100970.59;5037839;28;20030;-72
2023/12/30 06:48:35;;;;;;;14.68;2.13;;;;;;;6.31;100.00;100979.34;5035745;28;20056;-71
2023/12/30 06:51:02;;;;;;;12.40;2.53;;;;;;;6.26;100.00;100974.59;5033383;28;20029;-71
2023/12/30 06:53:31;;;;;;;16.55;3.53;;;;;;;6.19;100.00;100970.88;5036784;28;20082;-72
2023/12/30 06:56:04;;;;;;;17.63;2.60;;;;;;;6.30;100.00;100981.13;5042589;28;20036;-72
2023/12/30 06:58:29;;;;;;;16.35;2.80;;;;;;;6.23;100.00;100983.38;5047646;28;20048;-71
2023/12/30 07:00:55;;;;;;;18.00;2.35;;;;;;;6.21;100.00;100987.00;5021886;28;20755;-72
2023/12/30 07:03:21;;;;;;;22.95;2.65;;;;;;;6.20;100.00;100993.13;5038183;28;20056;-72
2023/12/30 07:05:46;;;;;;;21.15;2.42;;;;;;;6.18;100.00;100995.81;5036933;28;20067;-72
2023/12/30 07:08:12;;;;;;;13.98;1.77;;;;;;;6.20;100.00;100990.53;5033937;28;20041;-72
2023/12/30 07:10:38;;;;;;;18.70;2.22;;;;;;;6.08;100.00;101001.81;5037884;28;20037;-72
2023/12/30 07:13:05;;;;;;;18.65;4.07;;;;;;;6.12;100.00;100995.47;5033607;28;21831;-72
2023/12/30 07:15:30;;;;;;;16.17;2.70;;;;;;;6.14;100.00;101002.16;5041761;28;20035;-72
2023/12/30 07:17:56;;;;;;;13.40;2.40;;;;;;;6.12;100.00;101003.19;5037824;28;20037;-71
2023/12/30 07:20:21;;;;;;;15.85;2.30;;;;;;;6.13;100.00;101000.50;5037828;28;20029;-72
2023/12/30 07:22:47;;;;;;;17.45;2.33;;;;;;;6.09;100.00;100995.72;5036814;28;20606;-72
2023/12/30 07:25:13;;;;;;;12.55;2.38;;;;;;;5.98;100.00;101002.53;5024683;28;20037;-72
2023/12/30 07:27:38;;;;;;;10.27;1.70;;;;;;;6.11;100.00;100999.81;5042662;28;20051;-72
2023/12/30 07:30:04;;;;;;;13.60;2.22;;;;;;;6.19;100.00;100992.28;5036844;28;20385;-72
2023/12/30 07:32:30;;;;;;;21.40;2.55;;;;;;;6.18;100.00;101006.09;5019045;28;20134;-71
2023/12/30 07:34:56;;;;;;;17.38;2.20;;;;;;;6.11;100.00;101012.69;5020319;28;20087;-71
2023/12/30 07:37:21;;;;;;;25.73;8.35;;;;;;;6.08;100.00;101006.94;5035750;28;20033;-71
2023/12/30 07:39:47;;;;;;;14.82;2.58;;;;;;;6.26;100.00;101018.38;5043423;28;20075;-71
2023/12/30 07:42:12;;;;;;;24.13;2.95;;;;;;;6.27;100.00;101020.00;5021287;28;20029;-72
2023/12/30 07:44:38;;;;;;;25.33;3.25;;;;;;;6.41;100.00;101018.91;5036632;28;20042;-71
2023/12/30 07:47:05;;;;;;;19.02;2.85;;;;;;;6.38;100.00;101019.13;5034162;28;20059;-72
2023/12/30 07:49:31;;;;;;;27.23;2.70;;;;;;;6.35;100.00;101029.69;5039762;28;20399;-71
2023/12/30 07:51:58;;;;;;;20.05;3.03;;;;;;;6.43;100.00;101029.91;5039483;28;20174;-71
2023/12/30 07:54:23;;;;;;;23.85;3.97;;;;;;;6.46;100.00;101023.66;5022806;28;20461;-71
2023/12/30 07:56:49;;;;;;;22.10;2.67;;;;;;;6.34;100.00;101025.47;5036805;28;20044;-72
2023/12/30 07:59:14;;;;;;;13.93;2.97;;;;;;;6.34;100.00;101028.06;5039445;28;20048;-72
2023/12/30 08:01:42;;;;;;;19.85;3.03;;;;;;;6.40;100.00;101027.56;5036359;28;20042;-72
2023/12/30 08:04:07;;;;;;;13.25;3.50;;;;;;;6.39;100.00;101025.94;5036026;28;20042;-72
2023/12/30 08:06:33;;;;;;;27.02;6.32;;;;;;;6.41;100.00;101032.59;5043133;28;20047;-71
2023/12/30 08:08:58;;;;;;;21.70;4.78;;;;;;;6.58;100.00;101033.00;5037694;28;20087;-71
2023/12/30 08:11:24;;;;;;;24.88;4.00;;;;;;;6.55;100.00;101041.78;5037979;28;20044;-72
2023/12/30 08:13:49;;;;;;;19.30;3.03;;;;;;;6.50;100.00;101045.66;5026814;28;20042;-71
2023/12/30 08:16:15;;;;;;;29.50;3.92;;;;;;;6.47;100.00;101033.84;5044671;28;20033;-71
2023/12/30 08:18:40;;;;;;;21.33;3.25;;;;;;;6.49;100.00;101038.88;5036000;28;20041;-71
2023/12/30 08:21:05;;;;;;;17.52;3.35;;;;;;;6.59;100.00;101038.03;5037463;28;20045;-71
2023/12/30 08:23:31;;;;;;;93.15;27.35;;;;;;;6.60;100.00;101044.00;5037011;28;20049;-71
2023/12/30 08:25:56;;;;;;;23.05;5.93;;;;;;;6.63;100.00;101047.16;5039249;28;20033;-71
2023/12/30 08:28:22;;;;;;;21.90;3.10;;;;;;;6.56;100.00;101056.31;5038888;28;20045;-71
2023/12/30 08:30:47;;;;;;;25.17;2.88;;;;;;;6.53;100.00;101048.81;5042111;28;20033;-71
2023/12/30 08:33:14;;;;;;;18.95;5.68;;;;;;;6.60;100.00;101052.53;5034312;28;20102;-72
2023/12/30 08:35:39;;;;;;;16.45;3.40;;;;;;;6.66;100.00;101048.66;5043860;28;20044;-71
2023/12/30 08:38:05;;;;;;;23.95;5.53;;;;;;;6.56;100.00;101048.56;5040949;28;20037;-71
2023/12/30 08:40:30;;;;;;;12.52;2.78;;;;;;;6.59;100.00;101055.22;5042570;28;20472;-72
2023/12/30 08:42:55;;;;;;;25.20;3.03;;;;;;;6.61;100.00;101050.78;5041499;28;20032;-71
2023/12/30 08:45:22;;;;;;;18.83;2.90;;;;;;;6.76;100.00;101064.19;5042967;28;20026;-71
2023/12/30 08:47:47;;;;;;;25.40;5.35;;;;;;;6.82;100.00;101066.28;5043275;28;20373;-71
2023/12/30 08:50:13;;;;;;;30.50;5.38;;;;;;;6.78;100.00;101068.28;5042999;28;20033;-72
2023/12/30 08:52:39;;;;;;;26.85;5.47;;;;;;;6.75;100.00;101065.94;5043457;28;20053;-71
2023/12/30 08:55:12;;;;;;;18.67;5.78;;;;;;;6.73;100.00;101064.44;5037551;28;20030;-71
2023/12/30 08:57:38;;;;;;;30.80;11.20;;;;;;;6.87;100.00;101068.47;5051014;28;20082;-71
2023/12/30 09:00:08;;;;;;;24.23;4.63;;;;;;;6.88;100.00;101065.78;5044202;28;20502;-71
2023/12/30 09:02:37;;;;;;;20.92;5.60;;;;;;;6.77;100.00;101081.28;5052964;28;20028;-72
2023/12/30 09:05:03;;;;;;;24.98;5.28;;;;;;;6.82;100.00;101074.00;5045214;28;20032;-72
2023/12/30 09:07:29;;;;;;;34.65;5.80;;;;;;;6.86;100.00;101079.75;5046402;28;20037;-72
2023/12/30 09:09:56;;;;;;;32.72;13.55;;;;;;;6.79;100.00;101082.78;5028009;28;20956;-72
2023/12/30 09:12:22;;;;;;;37.15;9.85;;;;;;;6.85;100.00;101084.06;5042660;28;20037;-72
2023/12/30 09:14:47;;;;;;;30.75;5.05;;;;;;;6.91;100.00;101077.59;5041602;28;20116;-71
2023/12/30 09:17:13;;;;;;;19.67;4.00;;;;;;;6.88;100.00;101094.13;5043131;28;20095;-72
2023/12/30 09:19:38;;;;;;;18.58;3.22;;;;;;;6.96;100.00;101091.72;5043437;28;20049;-72
2023/12/30 09:22:07;;;;;;;18.52;3.10;;;;;;;7.06;100.00;101088.41;5040918;28;20369;-71
2023/12/30 09:24:35;;;;;;;24.13;4.72;;;;;;;7.13;100.00;101080.03;5040589;28;20047;-72
2023/12/30 09:27:00;;;;;;;25.70;4.00;;;;;;;7.04;100.00;101090.28;5042253;28;20041;-72
2023/12/30 09:29:26;;;;;;;20.40;3.80;;;;;;;7.16;100.00;101086.72;5045788;28;20495;-72
2023/12/30 09:31:52;;;;;;;20.25;4.95;;;;;;;7.17;100.00;101089.16;5042174;28;20037;-71
2023/12/30 09:34:17;;;;;;;19.80;4.38;;;;;;;7.42;100.00;101087.09;5039306;28;20026;-71
2023/12/30 09:36:43;;;;;;;22.02;4.13;;;;;;;7.42;100.00;101076.78;5040242;28;20029;-71
2023/12/30 09:39:11;;;;;;;13.15;3.13;;;;;;;7.35;100.00;101083.44;5037440;28;20041;-72
2023/12/30 09:41:39;;;;;;;14.70;3.70;;;;;;;7.40;100.00;101095.00;5044046;28;20499;-72
2023/12/30 09:44:05;;;;;;;22.45;4.38;;;;;;;7.31;100.00;101093.19;5039201;28;21271;-72
2023/12/30 09:46:31;;;;;;;22.13;5.20;;;;;;;7.37;100.00;101097.00;5038887;28;20033;-71
2023/12/30 09:48:58;;;;;;;24.95;4.22;;;;;;;7.49;100.00;101103.72;5043909;28;20037;-73
2023/12/30 09:51:25;;;;;;;26.25;4.93;;;;;;;7.45;100.00;101098.97;5043694;28;20039;-71
2023/12/30 09:53:50;;;;;;;20.40;4.60;;;;;;;7.53;100.00;101092.19;5040271;28;20041;-72
2023/12/30 09:56:18;;;;;;;25.13;3.63;;;;;;;7.67;100.00;101092.81;5042308;28;20541;-71
2023/12/30 09:58:44;;;;;;;23.92;5.63;;;;;;;7.64;100.00;101100.81;5042469;28;20408;-72
2023/12/30 10:01:10;;;;;;;22.40;5.65;;;;;;;7.61;100.00;101099.31;5041125;28;20044;-72
2023/12/30 10:03:35;;;;;;;25.30;4.32;;;;;;;7.70;100.00;101116.56;5037689;28;20034;-72
2023/12/30 10:06:04;;;;;;;15.85;3.40;;;;;;;7.77;100.00;101117.69;5043515;28;20411;-72
2023/12/30 10:08:30;;;;;;;24.95;4.28;;;;;;;7.78;100.00;101111.59;5044796;28;20040;-72
2023/12/30 10:10:57;;;;;;;21.55;4.15;;;;;;;7.73;100.00;101110.34;5028455;28;20571;-72
2023/12/30 10:13:26;;;;;;;17.75;4.18;;;;;;;7.88;100.00;101103.88;5027087;28;20542;-72
2023/12/30 10:15:57;;;;;;;19.75;3.67;;;;;;;8.06;100.00;101095.50;5042129;28;20041;-72
2023/12/30 10:18:23;;;;;;;19.52;3.88;;;;;;;8.02;100.00;101100.13;5040012;28;20380;-72
2023/12/30 10:20:49;;;;;;;16.95;2.65;;;;;;;8.02;100.00;101091.56;5037847;28;20656;-72
2023/12/30 10:23:14;;;;;;;16.13;2.75;;;;;;;8.07;100.00;101100.53;5038383;28;22252;-72
2023/12/30 10:25:41;;;;;;;16.42;2.60;;;;;;;8.08;100.00;101103.94;5024620;28;20033;-72
2023/12/30 10:28:07;;;;;;;25.25;3.15;;;;;;;8.04;100.00;101100.78;5039928;28;20052;-72
2023/12/30 10:30:32;;;;;;;18.77;3.65;;;;;;;8.03;100.00;101098.38;5042754;28;20093;-72
2023/12/30 10:33:13;;;;;;;21.00;4.18;;;;;;;8.07;100.00;101102.31;5036109;28;20033;-72
2023/12/30 10:35:40;;;;;;;25.40;3.85;;;;;;;8.07;100.00;101104.91;5043258;28;20476;-72
2023/12/30 10:38:10;;;;;;;21.13;4.15;;;;;;;8.02;100.00;101100.13;5038574;28;20033;-72
2023/12/30 10:40:38;;;;;;;17.88;5.75;;;;;;;8.07;100.00;101099.75;5046048;28;20036;-72
2023/12/30 10:43:04;;;;;;;11.90;2.78;;;;;;;8.15;100.00;101095.53;5040098;28;20029;-72
2023/12/30 10:45:30;;;;;;;22.92;5.00;;;;;;;8.09;100.00;101100.41;5045921;28;20044;-72
2023/12/30 10:47:58;;;;;;;15.90;3.63;;;;;;;8.15;100.00;101100.69;5040747;28;20591;-72
2023/12/30 10:50:25;;;;;;;30.30;4.68;;;;;;;8.13;100.00;101094.03;5042360;28;20041;-72
2023/12/30 10:53:03;;;;;;;19.25;3.28;;;;;;;8.24;100.00;101087.94;5039115;28;20041;-72
2023/12/30 10:55:33;;;;;;;20.67;2.88;;;;;;;8.11;100.00;101095.94;5025087;28;20057;-72
2023/12/30 10:58:06;;;;;;;25.50;7.00;;;;;;;8.19;100.00;101094.34;5033647;28;20048;-72
2023/12/30 11:00:36;;;;;;;14.23;3.63;;;;;;;8.28;100.00;101090.13;5022246;28;20083;-72
2023/12/30 11:03:05;;;;;;;27.40;3.88;;;;;;;8.28;100.00;101091.88;5053627;28;20025;-72
2023/12/30 11:05:45;;;;;;;59.58;14.00;;;;;;;8.34;100.00;101097.34;5038094;28;20116;-72
2023/12/30 11:08:11;;;;;;;28.48;6.28;;;;;;;8.35;100.00;101096.38;5044051;28;20113;-72
2023/12/30 11:10:37;;;;;;;22.20;4.80;;;;;;;8.22;100.00;101090.66;5038794;28;20447;-72
2023/12/30 11:13:06;;;;;;;33.58;7.57;;;;;;;8.26;100.00;101096.38;5040778;28;20033;-72